sensor_id;sensor_type;location;lat;lon;timestamp;temperature;humidity
79059;SHT31;68456;51.986;5.692;2023-05-02T00:00:45;16.6;56.1
79059;SHT31;68456;51.986;5.692;2023-05-02T00:03:14;16.6;55.8
79059;SHT31;68456;51.986;5.692;2023-05-02T00:05:43;16.6;56.1
79059;SHT31;68456;51.986;5.692;2023-05-02T00:08:12;16.6;56.1
79059;SHT31;68456;51.986;5.692;2023-05-02T00:10:41;16.6;56.0
79059;SHT31;68456;51.986;5.692;2023-05-02T00:13:10;16.5;56.1
79059;SHT31;68456;51.986;5.692;2023-05-02T00:15:38;16.5;56.3
79059;SHT31;68456;51.986;5.692;2023-05-02T00:18:07;16.5;56.0
79059;SHT31;68456;51.986;5.692;2023-05-02T00:20:35;16.5;56.2
79059;SHT31;68456;51.986;5.692;2023-05-02T00:23:04;16.5;56.4
79059;SHT31;68456;51.986;5.692;2023-05-02T00:25:32;16.5;56.2
79059;SHT31;68456;51.986;5.692;2023-05-02T00:28:01;16.5;56.4
79059;SHT31;68456;51.986;5.692;2023-05-02T00:30:31;16.5;56.6
79059;SHT31;68456;51.986;5.692;2023-05-02T00:33:00;16.5;56.5
79059;SHT31;68456;51.986;5.692;2023-05-02T00:35:28;16.5;57.0
79059;SHT31;68456;51.986;5.692;2023-05-02T00:37:58;16.5;56.6
79059;SHT31;68456;51.986;5.692;2023-05-02T00:40:26;16.4;56.7
79059;SHT31;68456;51.986;5.692;2023-05-02T00:42:55;16.4;56.6
79059;SHT31;68456;51.986;5.692;2023-05-02T00:45:24;16.4;56.5
79059;SHT31;68456;51.986;5.692;2023-05-02T00:47:53;16.4;56.8
79059;SHT31;68456;51.986;5.692;2023-05-02T00:50:25;16.4;56.9
79059;SHT31;68456;51.986;5.692;2023-05-02T00:52:54;16.4;56.8
79059;SHT31;68456;51.986;5.692;2023-05-02T00:55:25;16.4;56.8
79059;SHT31;68456;51.986;5.692;2023-05-02T00:57:54;16.4;56.9
79059;SHT31;68456;51.986;5.692;2023-05-02T01:00:29;16.4;56.7
79059;SHT31;68456;51.986;5.692;2023-05-02T01:03:11;16.3;56.6
79059;SHT31;68456;51.986;5.692;2023-05-02T01:05:58;16.3;56.7
79059;SHT31;68456;51.986;5.692;2023-05-02T01:08:33;16.3;56.8
79059;SHT31;68456;51.986;5.692;2023-05-02T01:11:13;16.3;56.7
79059;SHT31;68456;51.986;5.692;2023-05-02T01:13:46;16.3;56.7
79059;SHT31;68456;51.986;5.692;2023-05-02T01:16:18;16.3;56.8
79059;SHT31;68456;51.986;5.692;2023-05-02T01:18:47;16.3;56.8
79059;SHT31;68456;51.986;5.692;2023-05-02T01:21:20;16.3;56.7
79059;SHT31;68456;51.986;5.692;2023-05-02T01:23:59;16.3;57.1
79059;SHT31;68456;51.986;5.692;2023-05-02T01:26:35;16.3;57.4
79059;SHT31;68456;51.986;5.692;2023-05-02T01:29:09;16.3;57.0
79059;SHT31;68456;51.986;5.692;2023-05-02T01:31:42;16.3;57.0
79059;SHT31;68456;51.986;5.692;2023-05-02T01:34:13;16.3;57.2
79059;SHT31;68456;51.986;5.692;2023-05-02T01:36:46;16.3;57.3
79059;SHT31;68456;51.986;5.692;2023-05-02T01:39:18;16.2;57.8
79059;SHT31;68456;51.986;5.692;2023-05-02T01:41:49;16.2;57.3
79059;SHT31;68456;51.986;5.692;2023-05-02T01:44:21;16.2;58.0
79059;SHT31;68456;51.986;5.692;2023-05-02T01:46:52;16.2;58.2
79059;SHT31;68456;51.986;5.692;2023-05-02T01:49:23;16.2;58.0
79059;SHT31;68456;51.986;5.692;2023-05-02T01:51:52;16.1;59.0
79059;SHT31;68456;51.986;5.692;2023-05-02T01:54:23;16.1;58.3
79059;SHT31;68456;51.986;5.692;2023-05-02T01:56:55;16.1;58.8
79059;SHT31;68456;51.986;5.692;2023-05-02T01:59:25;16.1;58.7
79059;SHT31;68456;51.986;5.692;2023-05-02T02:01:57;16.0;59.2
79059;SHT31;68456;51.986;5.692;2023-05-02T02:04:28;16.0;59.5
79059;SHT31;68456;51.986;5.692;2023-05-02T02:07:02;16.0;59.5
79059;SHT31;68456;51.986;5.692;2023-05-02T02:09:31;16.0;59.5
79059;SHT31;68456;51.986;5.692;2023-05-02T02:12:03;15.9;59.6
79059;SHT31;68456;51.986;5.692;2023-05-02T02:14:37;15.9;59.7
79059;SHT31;68456;51.986;5.692;2023-05-02T02:17:12;15.9;59.5
79059;SHT31;68456;51.986;5.692;2023-05-02T02:19:44;15.8;59.5
79059;SHT31;68456;51.986;5.692;2023-05-02T02:22:16;15.8;59.3
79059;SHT31;68456;51.986;5.692;2023-05-02T02:24:48;15.8;59.3
